sensor_id;sensor_type;location;lat;lon;timestamp;P1;durP1;ratioP1;P2;durP2;ratioP2
76761;SDS011;65705;51.032;13.790;2023-04-24T00:00:25;5.13;;;2.20;;
76761;SDS011;65705;51.032;13.790;2023-04-24T00:02:51;6.10;;;2.03;;
76761;SDS011;65705;51.032;13.790;2023-04-24T00:05:16;4.53;;;2.17;;
76761;SDS011;65705;51.032;13.790;2023-04-24T00:07:43;4.65;;;2.33;;
76761;SDS011;65705;51.032;13.790;2023-04-24T00:10:10;4.70;;;2.40;;
76761;SDS011;65705;51.032;13.790;2023-04-24T00:12:37;6.72;;;2.30;;
76761;SDS011;65705;51.032;13.790;2023-04-24T00:15:03;5.45;;;2.33;;
76761;SDS011;65705;51.032;13.790;2023-04-24T00:17:30;4.50;;;2.47;;
76761;SDS011;65705;51.032;13.790;2023-04-24T00:19:56;5.22;;;2.22;;
76761;SDS011;65705;51.032;13.790;2023-04-24T00:24:52;5.35;;;2.25;;
76761;SDS011;65705;51.032;13.790;2023-04-24T00:27:18;5.28;;;2.20;;
76761;SDS011;65705;51.032;13.790;2023-04-24T00:29:44;4.15;;;2.60;;
76761;SDS011;65705;51.032;13.790;2023-04-24T00:32:10;4.78;;;2.30;;
76761;SDS011;65705;51.032;13.790;2023-04-24T00:34:36;6.47;;;2.53;;
76761;SDS011;65705;51.032;13.790;2023-04-24T00:37:02;5.30;;;2.70;;
76761;SDS011;65705;51.032;13.790;2023-04-24T00:39:27;4.80;;;2.70;;
76761;SDS011;65705;51.032;13.790;2023-04-24T00:41:53;8.52;;;2.78;;
76761;SDS011;65705;51.032;13.790;2023-04-24T00:44:20;4.97;;;2.53;;
76761;SDS011;65705;51.032;13.790;2023-04-24T00:46:46;6.05;;;2.90;;
76761;SDS011;65705;51.032;13.790;2023-04-24T00:49:23;4.38;;;2.22;;
76761;SDS011;65705;51.032;13.790;2023-04-24T00:51:49;6.70;;;2.60;;
76761;SDS011;65705;51.032;13.790;2023-04-24T00:54:17;7.95;;;2.78;;
76761;SDS011;65705;51.032;13.790;2023-04-24T00:56:43;4.45;;;2.17;;
76761;SDS011;65705;51.032;13.790;2023-04-24T00:59:10;6.00;;;2.78;;
76761;SDS011;65705;51.032;13.790;2023-04-24T01:01:38;5.78;;;2.65;;
76761;SDS011;65705;51.032;13.790;2023-04-24T01:04:07;6.35;;;2.75;;
76761;SDS011;65705;51.032;13.790;2023-04-24T01:06:35;8.50;;;2.72;;
76761;SDS011;65705;51.032;13.790;2023-04-24T01:09:04;5.43;;;2.45;;
76761;SDS011;65705;51.032;13.790;2023-04-24T01:11:30;4.68;;;2.40;;
76761;SDS011;65705;51.032;13.790;2023-04-24T01:13:56;5.60;;;2.65;;
76761;SDS011;65705;51.032;13.790;2023-04-24T01:16:24;8.90;;;3.05;;
76761;SDS011;65705;51.032;13.790;2023-04-24T01:18:50;4.70;;;2.35;;
76761;SDS011;65705;51.032;13.790;2023-04-24T01:21:17;4.55;;;2.70;;
76761;SDS011;65705;51.032;13.790;2023-04-24T01:23:45;4.82;;;2.72;;
76761;SDS011;65705;51.032;13.790;2023-04-24T01:26:11;4.97;;;2.60;;
76761;SDS011;65705;51.032;13.790;2023-04-24T01:28:41;8.15;;;2.70;;
76761;SDS011;65705;51.032;13.790;2023-04-24T01:31:07;5.88;;;3.03;;
76761;SDS011;65705;51.032;13.790;2023-04-24T01:33:33;5.32;;;2.80;;
76761;SDS011;65705;51.032;13.790;2023-04-24T01:35:59;6.72;;;2.97;;
76761;SDS011;65705;51.032;13.790;2023-04-24T01:38:26;5.32;;;2.83;;
76761;SDS011;65705;51.032;13.790;2023-04-24T01:40:52;5.55;;;2.65;;
76761;SDS011;65705;51.032;13.790;2023-04-24T01:43:18;6.30;;;2.90;;
76761;SDS011;65705;51.032;13.790;2023-04-24T01:45:44;6.78;;;3.08;;
76761;SDS011;65705;51.032;13.790;2023-04-24T01:48:11;6.53;;;2.90;;
76761;SDS011;65705;51.032;13.790;2023-04-24T01:50:37;7.32;;;2.95;;
76761;SDS011;65705;51.032;13.790;2023-04-24T01:53:03;6.00;;;2.97;;
76761;SDS011;65705;51.032;13.790;2023-04-24T01:55:30;6.13;;;2.83;;
76761;SDS011;65705;51.032;13.790;2023-04-24T01:57:56;7.32;;;3.03;;
76761;SDS011;65705;51.032;13.790;2023-04-24T02:00:22;7.38;;;3.72;;
76761;SDS011;65705;51.032;13.790;2023-04-24T02:02:48;6.60;;;3.03;;
76761;SDS011;65705;51.032;13.790;2023-04-24T02:05:14;5.88;;;3.10;;
76761;SDS011;65705;51.032;13.790;2023-04-24T02:07:40;7.75;;;2.97;;
76761;SDS011;65705;51.032;13.790;2023-04-24T02:10:06;5.50;;;2.47;;
76761;SDS011;65705;51.032;13.790;2023-04-24T02:12:32;6.00;;;2.75;;
76761;SDS011;65705;51.032;13.790;2023-04-24T02:15:01;5.18;;;2.78;;
76761;SDS011;65705;51.032;13.790;2023-04-24T02:17:31;6.32;;;2.90;;
76761;SDS011;65705;51.032;13.790;2023-04-24T02:19:57;5.47;;;2.80;;
76761;SDS011;65705;51.032;13.790;2023-04-24T02:22:22;5.97;;;3.38;;
76761;SDS011;65705;51.032;13.790;2023-04-24T02:24:49;5.68;;;3.08;;
76761;SDS011;65705;51.032;13.790;2023-04-24T02:27:15;10.13;;;3.20;;
76761;SDS011;65705;51.032;13.790;2023-04-24T02:29:40;12.00;;;3.15;;
76761;SDS011;65705;51.032;13.790;2023-04-24T02:32:06;8.70;;;2.95;;
76761;SDS011;65705;51.032;13.790;2023-04-24T02:34:32;6.05;;;3.10;;
76761;SDS011;65705;51.032;13.790;2023-04-24T02:36:58;6.30;;;2.97;;
76761;SDS011;65705;51.032;13.790;2023-04-24T02:39:24;6.00;;;3.00;;
76761;SDS011;65705;51.032;13.790;2023-04-24T02:41:51;6.18;;;2.72;;
76761;SDS011;65705;51.032;13.790;2023-04-24T02:44:17;7.65;;;3.25;;
76761;SDS011;65705;51.032;13.790;2023-04-24T02:46:43;7.45;;;2.88;;
76761;SDS011;65705;51.032;13.790;2023-04-24T02:49:09;5.68;;;3.20;;
76761;SDS011;65705;51.032;13.790;2023-04-24T02:51:34;6.45;;;3.10;;
76761;SDS011;65705;51.032;13.790;2023-04-24T02:54:03;7.18;;;2.90;;
76761;SDS011;65705;51.032;13.790;2023-04-24T02:56:29;7.57;;;2.97;;
76761;SDS011;65705;51.032;13.790;2023-04-24T02:58:56;5.80;;;3.17;;
76761;SDS011;65705;51.032;13.790;2023-04-24T03:01:22;6.25;;;3.13;;
76761;SDS011;65705;51.032;13.790;2023-04-24T03:03:47;6.80;;;3.80;;
76761;SDS011;65705;51.032;13.790;2023-04-24T03:06:14;12.23;;;3.55;;
76761;SDS011;65705;51.032;13.790;2023-04-24T03:08:40;6.07;;;3.33;;
76761;SDS011;65705;51.032;13.790;2023-04-24T03:11:06;7.30;;;2.90;;
76761;SDS011;65705;51.032;13.790;2023-04-24T03:13:32;6.28;;;3.25;;
76761;SDS011;65705;51.032;13.790;2023-04-24T03:15:58;7.32;;;3.28;;
76761;SDS011;65705;51.032;13.790;2023-04-24T03:18:23;7.25;;;3.80;;
76761;SDS011;65705;51.032;13.790;2023-04-24T03:20:51;8.52;;;3.55;;
76761;SDS011;65705;51.032;13.790;2023-04-24T03:23:17;7.22;;;3.45;;
76761;SDS011;65705;51.032;13.790;2023-04-24T03:25:43;9.23;;;3.67;;
76761;SDS011;65705;51.032;13.790;2023-04-24T03:28:11;9.93;;;3.30;;
76761;SDS011;65705;51.032;13.790;2023-04-24T03:33:13;7.97;;;3.13;;
76761;SDS011;65705;51.032;13.790;2023-04-24T03:35:48;7.80;;;3.60;;
76761;SDS011;65705;51.032;13.790;2023-04-24T03:38:14;7.68;;;3.55;;
76761;SDS011;65705;51.032;13.790;2023-04-24T03:40:58;6.93;;;3.33;;
76761;SDS011;65705;51.032;13.790;2023-04-24T03:43:44;13.13;;;3.83;;
76761;SDS011;65705;51.032;13.790;2023-04-24T03:46:10;9.95;;;3.60;;
76761;SDS011;65705;51.032;13.790;2023-04-24T03:48:41;11.00;;;4.05;;
76761;SDS011;65705;51.032;13.790;2023-04-24T03:51:08;7.32;;;3.17;;
76761;SDS011;65705;51.032;13.790;2023-04-24T03:53:35;10.65;;;3.90;;
76761;SDS011;65705;51.032;13.790;2023-04-24T03:56:02;8.55;;;3.70;;
76761;SDS011;65705;51.032;13.790;2023-04-24T03:58:29;9.40;;;3.70;;
76761;SDS011;65705;51.032;13.790;2023-04-24T04:00:55;9.75;;;3.38;;
76761;SDS011;65705;51.032;13.790;2023-04-24T04:03:52;7.70;;;3.65;;
76761;SDS011;65705;51.032;13.790;2023-04-24T04:06:21;8.90;;;3.90;;
76761;SDS011;65705;51.032;13.790;2023-04-24T04:08:48;8.30;;;4.00;;
76761;SDS011;65705;51.032;13.790;2023-04-24T04:11:14;8.27;;;3.55;;
76761;SDS011;65705;51.032;13.790;2023-04-24T04:13:39;6.68;;;4.18;;
76761;SDS011;65705;51.032;13.790;2023-04-24T04:16:06;8.18;;;3.83;;
76761;SDS011;65705;51.032;13.790;2023-04-24T04:18:31;8.13;;;3.80;;
76761;SDS011;65705;51.032;13.790;2023-04-24T04:20:57;6.57;;;3.10;;
76761;SDS011;65705;51.032;13.790;2023-04-24T04:23:24;7.65;;;3.47;;
76761;SDS011;65705;51.032;13.790;2023-04-24T04:26:03;8.50;;;3.17;;
76761;SDS011;65705;51.032;13.790;2023-04-24T04:28:42;7.63;;;3.65;;
76761;SDS011;65705;51.032;13.790;2023-04-24T04:31:10;5.68;;;3.63;;
76761;SDS011;65705;51.032;13.790;2023-04-24T04:33:37;9.55;;;3.50;;
76761;SDS011;65705;51.032;13.790;2023-04-24T04:36:05;10.98;;;3.65;;
76761;SDS011;65705;51.032;13.790;2023-04-24T04:38:35;8.07;;;2.90;;
76761;SDS011;65705;51.032;13.790;2023-04-24T04:41:17;7.38;;;3.42;;
76761;SDS011;65705;51.032;13.790;2023-04-24T04:43:44;9.32;;;3.65;;
76761;SDS011;65705;51.032;13.790;2023-04-24T04:46:12;12.05;;;3.58;;
76761;SDS011;65705;51.032;13.790;2023-04-24T04:48:46;9.23;;;3.67;;
76761;SDS011;65705;51.032;13.790;2023-04-24T04:51:12;9.68;;;3.13;;
76761;SDS011;65705;51.032;13.790;2023-04-24T04:53:38;10.45;;;3.25;;
76761;SDS011;65705;51.032;13.790;2023-04-24T04:56:04;8.10;;;2.38;;
76761;SDS011;65705;51.032;13.790;2023-04-24T04:58:35;5.97;;;2.58;;
76761;SDS011;65705;51.032;13.790;2023-04-24T05:01:02;5.63;;;1.40;;
76761;SDS011;65705;51.032;13.790;2023-04-24T05:03:37;7.70;;;1.50;;
76761;SDS011;65705;51.032;13.790;2023-04-24T05:06:06;4.32;;;1.10;;
76761;SDS011;65705;51.032;13.790;2023-04-24T05:08:36;3.40;;;1.13;;
76761;SDS011;65705;51.032;13.790;2023-04-24T05:11:03;4.45;;;1.17;;
76761;SDS011;65705;51.032;13.790;2023-04-24T05:13:31;2.63;;;0.90;;
76761;SDS011;65705;51.032;13.790;2023-04-24T05:15:57;3.42;;;1.30;;
76761;SDS011;65705;51.032;13.790;2023-04-24T05:18:25;9.50;;;4.40;;
76761;SDS011;65705;51.032;13.790;2023-04-24T05:20:51;7.20;;;2.67;;
76761;SDS011;65705;51.032;13.790;2023-04-24T05:23:17;6.00;;;1.42;;
76761;SDS011;65705;51.032;13.790;2023-04-24T05:25:45;3.47;;;1.20;;
76761;SDS011;65705;51.032;13.790;2023-04-24T05:28:13;2.65;;;0.80;;
76761;SDS011;65705;51.032;13.790;2023-04-24T05:30:41;3.85;;;0.98;;
76761;SDS011;65705;51.032;13.790;2023-04-24T05:33:07;5.68;;;1.70;;
76761;SDS011;65705;51.032;13.790;2023-04-24T05:35:34;14.27;;;2.42;;
76761;SDS011;65705;51.032;13.790;2023-04-24T05:38:00;3.20;;;1.20;;
76761;SDS011;65705;51.032;13.790;2023-04-24T05:40:26;4.10;;;1.20;;
76761;SDS011;65705;51.032;13.790;2023-04-24T05:42:52;5.78;;;1.38;;
76761;SDS011;65705;51.032;13.790;2023-04-24T05:45:19;7.38;;;1.30;;
76761;SDS011;65705;51.032;13.790;2023-04-24T05:47:48;6.78;;;1.33;;
76761;SDS011;65705;51.032;13.790;2023-04-24T05:50:16;5.15;;;1.10;;
76761;SDS011;65705;51.032;13.790;2023-04-24T05:52:42;8.95;;;1.48;;
76761;SDS011;65705;51.032;13.790;2023-04-24T05:55:21;1.00;;;0.60;;
76761;SDS011;65705;51.032;13.790;2023-04-24T05:57:46;3.10;;;0.90;;
76761;SDS011;65705;51.032;13.790;2023-04-24T06:00:13;2.53;;;0.70;;
76761;SDS011;65705;51.032;13.790;2023-04-24T06:02:43;5.07;;;0.90;;
76761;SDS011;65705;51.032;13.790;2023-04-24T06:05:11;3.70;;;0.82;;
76761;SDS011;65705;51.032;13.790;2023-04-24T06:07:37;3.17;;;0.88;;
76761;SDS011;65705;51.032;13.790;2023-04-24T06:10:05;3.97;;;0.90;;
76761;SDS011;65705;51.032;13.790;2023-04-24T06:12:38;6.90;;;0.88;;
76761;SDS011;65705;51.032;13.790;2023-04-24T06:15:09;7.45;;;1.05;;
76761;SDS011;65705;51.032;13.790;2023-04-24T06:17:54;5.22;;;1.05;;
76761;SDS011;65705;51.032;13.790;2023-04-24T06:20:20;2.88;;;0.70;;
76761;SDS011;65705;51.032;13.790;2023-04-24T06:22:46;5.43;;;1.00;;
76761;SDS011;65705;51.032;13.790;2023-04-24T06:25:12;2.53;;;0.82;;
76761;SDS011;65705;51.032;13.790;2023-04-24T06:27:37;7.35;;;0.82;;
76761;SDS011;65705;51.032;13.790;2023-04-24T06:30:03;3.22;;;0.80;;
76761;SDS011;65705;51.032;13.790;2023-04-24T06:32:29;8.90;;;3.28;;
76761;SDS011;65705;51.032;13.790;2023-04-24T06:34:56;3.13;;;1.10;;
76761;SDS011;65705;51.032;13.790;2023-04-24T06:37:22;2.13;;;0.70;;
76761;SDS011;65705;51.032;13.790;2023-04-24T06:39:48;1.27;;;0.50;;
76761;SDS011;65705;51.032;13.790;2023-04-24T06:42:13;1.35;;;0.50;;
76761;SDS011;65705;51.032;13.790;2023-04-24T06:44:42;2.30;;;0.60;;
76761;SDS011;65705;51.032;13.790;2023-04-24T06:47:08;2.90;;;0.52;;
76761;SDS011;65705;51.032;13.790;2023-04-24T06:49:36;2.92;;;0.90;;
76761;SDS011;65705;51.032;13.790;2023-04-24T06:52:02;2.13;;;0.60;;
76761;SDS011;65705;51.032;13.790;2023-04-24T06:54:28;1.75;;;0.45;;
76761;SDS011;65705;51.032;13.790;2023-04-24T06:56:54;2.83;;;0.73;;
76761;SDS011;65705;51.032;13.790;2023-04-24T06:59:20;2.38;;;0.65;;
76761;SDS011;65705;51.032;13.790;2023-04-24T07:01:46;4.15;;;0.88;;
76761;SDS011;65705;51.032;13.790;2023-04-24T07:04:12;3.20;;;0.82;;
76761;SDS011;65705;51.032;13.790;2023-04-24T07:06:38;2.40;;;0.60;;
76761;SDS011;65705;51.032;13.790;2023-04-24T07:09:04;2.15;;;0.57;;
76761;SDS011;65705;51.032;13.790;2023-04-24T07:11:30;4.57;;;0.95;;
76761;SDS011;65705;51.032;13.790;2023-04-24T07:13:56;1.95;;;0.50;;
76761;SDS011;65705;51.032;13.790;2023-04-24T07:16:22;3.92;;;0.70;;
76761;SDS011;65705;51.032;13.790;2023-04-24T07:18:48;3.17;;;1.17;;
76761;SDS011;65705;51.032;13.790;2023-04-24T07:21:14;1.20;;;0.50;;
76761;SDS011;65705;51.032;13.790;2023-04-24T07:23:44;1.52;;;0.50;;
76761;SDS011;65705;51.032;13.790;2023-04-24T07:26:09;6.25;;;1.80;;
76761;SDS011;65705;51.032;13.790;2023-04-24T07:28:35;5.80;;;1.60;;
76761;SDS011;65705;51.032;13.790;2023-04-24T07:31:01;3.80;;;1.60;;
76761;SDS011;65705;51.032;13.790;2023-04-24T07:33:27;4.68;;;1.90;;
76761;SDS011;65705;51.032;13.790;2023-04-24T07:35:53;2.15;;;0.60;;
76761;SDS011;65705;51.032;13.790;2023-04-24T07:38:19;1.65;;;0.50;;
76761;SDS011;65705;51.032;13.790;2023-04-24T07:40:47;1.67;;;0.40;;
76761;SDS011;65705;51.032;13.790;2023-04-24T07:43:14;0.68;;;0.30;;
76761;SDS011;65705;51.032;13.790;2023-04-24T07:45:40;0.88;;;0.40;;
76761;SDS011;65705;51.032;13.790;2023-04-24T07:48:06;5.13;;;0.70;;
76761;SDS011;65705;51.032;13.790;2023-04-24T07:50:34;2.63;;;0.43;;
76761;SDS011;65705;51.032;13.790;2023-04-24T07:53:01;1.85;;;0.43;;
76761;SDS011;65705;51.032;13.790;2023-04-24T07:55:27;1.40;;;0.55;;
76761;SDS011;65705;51.032;13.790;2023-04-24T07:57:53;1.67;;;0.90;;
76761;SDS011;65705;51.032;13.790;2023-04-24T08:00:19;2.10;;;0.40;;
76761;SDS011;65705;51.032;13.790;2023-04-24T08:02:45;1.33;;;0.40;;
76761;SDS011;65705;51.032;13.790;2023-04-24T08:05:11;1.73;;;0.47;;
76761;SDS011;65705;51.032;13.790;2023-04-24T08:07:37;5.55;;;1.80;;
76761;SDS011;65705;51.032;13.790;2023-04-24T08:10:03;2.10;;;0.70;;
76761;SDS011;65705;51.032;13.790;2023-04-24T08:12:30;3.35;;;1.17;;
76761;SDS011;65705;51.032;13.790;2023-04-24T08:14:56;1.95;;;0.70;;
76761;SDS011;65705;51.032;13.790;2023-04-24T08:17:21;1.45;;;0.43;;
76761;SDS011;65705;51.032;13.790;2023-04-24T08:19:47;1.05;;;0.40;;
76761;SDS011;65705;51.032;13.790;2023-04-24T08:22:14;3.75;;;0.50;;
76761;SDS011;65705;51.032;13.790;2023-04-24T08:24:40;2.30;;;0.80;;
76761;SDS011;65705;51.032;13.790;2023-04-24T08:27:06;1.63;;;0.57;;
76761;SDS011;65705;51.032;13.790;2023-04-24T08:29:32;1.52;;;0.40;;
76761;SDS011;65705;51.032;13.790;2023-04-24T08:32:04;2.67;;;0.82;;
76761;SDS011;65705;51.032;13.790;2023-04-24T08:34:30;1.10;;;0.32;;
76761;SDS011;65705;51.032;13.790;2023-04-24T08:36:56;3.38;;;0.35;;
76761;SDS011;65705;51.032;13.790;2023-04-24T08:39:22;3.17;;;1.15;;
76761;SDS011;65705;51.032;13.790;2023-04-24T08:41:48;1.88;;;0.60;;
76761;SDS011;65705;51.032;13.790;2023-04-24T08:44:14;2.55;;;0.60;;
76761;SDS011;65705;51.032;13.790;2023-04-24T08:46:42;3.60;;;0.70;;
76761;SDS011;65705;51.032;13.790;2023-04-24T08:49:11;6.60;;;1.02;;
76761;SDS011;65705;51.032;13.790;2023-04-24T08:51:39;5.25;;;1.10;;
76761;SDS011;65705;51.032;13.790;2023-04-24T08:54:05;2.60;;;1.00;;
76761;SDS011;65705;51.032;13.790;2023-04-24T08:56:33;3.03;;;0.50;;
76761;SDS011;65705;51.032;13.790;2023-04-24T08:59:03;1.27;;;0.30;;
76761;SDS011;65705;51.032;13.790;2023-04-24T09:01:32;2.50;;;0.80;;
76761;SDS011;65705;51.032;13.790;2023-04-24T09:04:00;1.85;;;0.50;;
76761;SDS011;65705;51.032;13.790;2023-04-24T09:06:29;4.20;;;0.63;;
76761;SDS011;65705;51.032;13.790;2023-04-24T09:08:59;1.77;;;0.40;;
76761;SDS011;65705;51.032;13.790;2023-04-24T09:11:26;2.40;;;0.50;;
76761;SDS011;65705;51.032;13.790;2023-04-24T09:13:56;2.38;;;0.60;;
76761;SDS011;65705;51.032;13.790;2023-04-24T09:16:22;1.30;;;0.50;;
76761;SDS011;65705;51.032;13.790;2023-04-24T09:18:49;3.17;;;0.38;;
76761;SDS011;65705;51.032;13.790;2023-04-24T09:21:15;1.20;;;0.32;;
76761;SDS011;65705;51.032;13.790;2023-04-24T09:23:41;0.40;;;0.28;;
76761;SDS011;65705;51.032;13.790;2023-04-24T09:26:08;2.30;;;0.30;;
76761;SDS011;65705;51.032;13.790;2023-04-24T09:28:37;1.48;;;0.40;;
76761;SDS011;65705;51.032;13.790;2023-04-24T09:33:33;5.32;;;2.17;;
76761;SDS011;65705;51.032;13.790;2023-04-24T09:35:59;4.85;;;1.70;;
76761;SDS011;65705;51.032;13.790;2023-04-24T09:38:33;2.70;;;1.00;;
76761;SDS011;65705;51.032;13.790;2023-04-24T09:41:03;2.00;;;0.50;;
76761;SDS011;65705;51.032;13.790;2023-04-24T09:43:31;1.35;;;0.43;;
76761;SDS011;65705;51.032;13.790;2023-04-24T09:45:58;2.17;;;0.70;;
76761;SDS011;65705;51.032;13.790;2023-04-24T09:48:29;4.25;;;0.63;;
76761;SDS011;65705;51.032;13.790;2023-04-24T09:50:56;2.67;;;0.70;;
76761;SDS011;65705;51.032;13.790;2023-04-24T09:53:25;1.55;;;0.60;;
76761;SDS011;65705;51.032;13.790;2023-04-24T09:55:52;3.60;;;0.57;;
76761;SDS011;65705;51.032;13.790;2023-04-24T09:58:18;1.73;;;0.50;;
76761;SDS011;65705;51.032;13.790;2023-04-24T10:00:52;4.60;;;0.63;;
76761;SDS011;65705;51.032;13.790;2023-04-24T10:03:20;4.57;;;0.82;;
76761;SDS011;65705;51.032;13.790;2023-04-24T10:05:46;1.55;;;0.60;;
76761;SDS011;65705;51.032;13.790;2023-04-24T10:08:12;1.23;;;0.50;;
76761;SDS011;65705;51.032;13.790;2023-04-24T10:10:43;3.95;;;0.32;;
76761;SDS011;65705;51.032;13.790;2023-04-24T10:13:10;1.05;;;0.45;;
76761;SDS011;65705;51.032;13.790;2023-04-24T10:15:38;0.75;;;0.40;;
76761;SDS011;65705;51.032;13.790;2023-04-24T10:18:05;3.58;;;0.68;;
76761;SDS011;65705;51.032;13.790;2023-04-24T10:20:35;1.85;;;0.45;;
76761;SDS011;65705;51.032;13.790;2023-04-24T10:23:02;1.83;;;0.45;;
76761;SDS011;65705;51.032;13.790;2023-04-24T10:25:30;1.13;;;0.35;;
76761;SDS011;65705;51.032;13.790;2023-04-24T10:28:00;2.15;;;0.28;;
76761;SDS011;65705;51.032;13.790;2023-04-24T10:30:27;3.15;;;0.50;;
76761;SDS011;65705;51.032;13.790;2023-04-24T10:32:54;1.25;;;0.50;;
76761;SDS011;65705;51.032;13.790;2023-04-24T10:35:21;2.60;;;0.50;;
76761;SDS011;65705;51.032;13.790;2023-04-24T10:37:54;4.75;;;0.70;;
76761;SDS011;65705;51.032;13.790;2023-04-24T10:40:27;4.05;;;1.13;;
76761;SDS011;65705;51.032;13.790;2023-04-24T10:42:56;4.45;;;1.73;;
76761;SDS011;65705;51.032;13.790;2023-04-24T10:45:22;2.72;;;1.10;;
76761;SDS011;65705;51.032;13.790;2023-04-24T10:47:53;2.97;;;0.60;;
76761;SDS011;65705;51.032;13.790;2023-04-24T10:50:27;1.25;;;0.40;;
76761;SDS011;65705;51.032;13.790;2023-04-24T10:53:04;0.90;;;0.30;;
76761;SDS011;65705;51.032;13.790;2023-04-24T10:55:45;2.78;;;0.55;;
76761;SDS011;65705;51.032;13.790;2023-04-24T10:58:22;1.48;;;0.40;;
76761;SDS011;65705;51.032;13.790;2023-04-24T11:00:59;1.10;;;0.50;;
76761;SDS011;65705;51.032;13.790;2023-04-24T11:06:03;2.75;;;0.85;;
76761;SDS011;65705;51.032;13.790;2023-04-24T11:11:08;5.78;;;1.05;;
76761;SDS011;65705;51.032;13.790;2023-04-24T11:18:52;1.92;;;0.60;;
76761;SDS011;65705;51.032;13.790;2023-04-24T11:21:30;1.58;;;0.60;;
76761;SDS011;65705;51.032;13.790;2023-04-24T11:23:58;5.45;;;2.10;;
76761;SDS011;65705;51.032;13.790;2023-04-24T11:26:24;6.15;;;1.55;;
76761;SDS011;65705;51.032;13.790;2023-04-24T11:28:55;3.78;;;0.60;;
76761;SDS011;65705;51.032;13.790;2023-04-24T11:31:43;1.85;;;0.65;;
76761;SDS011;65705;51.032;13.790;2023-04-24T11:34:15;1.17;;;0.30;;
76761;SDS011;65705;51.032;13.790;2023-04-24T11:36:45;1.00;;;0.43;;
76761;SDS011;65705;51.032;13.790;2023-04-24T11:39:11;2.13;;;0.70;;
76761;SDS011;65705;51.032;13.790;2023-04-24T11:41:38;0.85;;;0.40;;
76761;SDS011;65705;51.032;13.790;2023-04-24T11:44:05;2.33;;;0.68;;
76761;SDS011;65705;51.032;13.790;2023-04-24T11:46:32;6.20;;;0.70;;
76761;SDS011;65705;51.032;13.790;2023-04-24T11:48:58;2.10;;;0.40;;
76761;SDS011;65705;51.032;13.790;2023-04-24T11:51:25;0.70;;;0.40;;
76761;SDS011;65705;51.032;13.790;2023-04-24T11:53:53;6.15;;;0.57;;
76761;SDS011;65705;51.032;13.790;2023-04-24T11:56:21;1.20;;;0.50;;
76761;SDS011;65705;51.032;13.790;2023-04-24T11:58:47;5.22;;;0.60;;
76761;SDS011;65705;51.032;13.790;2023-04-24T12:01:13;1.13;;;0.43;;
76761;SDS011;65705;51.032;13.790;2023-04-24T12:03:39;0.82;;;0.40;;
76761;SDS011;65705;51.032;13.790;2023-04-24T12:06:08;1.05;;;0.35;;
76761;SDS011;65705;51.032;13.790;2023-04-24T12:08:36;2.97;;;0.80;;
76761;SDS011;65705;51.032;13.790;2023-04-24T12:11:02;1.85;;;0.40;;
76761;SDS011;65705;51.032;13.790;2023-04-24T12:13:30;4.38;;;0.50;;
76761;SDS011;65705;51.032;13.790;2023-04-24T12:15:56;2.83;;;1.25;;
76761;SDS011;65705;51.032;13.790;2023-04-24T12:18:23;6.40;;;3.25;;
76761;SDS011;65705;51.032;13.790;2023-04-24T12:20:49;2.38;;;0.82;;
76761;SDS011;65705;51.032;13.790;2023-04-24T12:23:14;4.80;;;0.55;;
76761;SDS011;65705;51.032;13.790;2023-04-24T12:25:40;3.55;;;0.50;;
76761;SDS011;65705;51.032;13.790;2023-04-24T12:30:33;3.00;;;0.40;;
76761;SDS011;65705;51.032;13.790;2023-04-24T12:33:10;2.28;;;1.00;;
76761;SDS011;65705;51.032;13.790;2023-04-24T12:35:36;1.77;;;0.63;;
76761;SDS011;65705;51.032;13.790;2023-04-24T12:40:34;1.77;;;0.50;;
76761;SDS011;65705;51.032;13.790;2023-04-24T12:43:00;0.85;;;0.40;;
76761;SDS011;65705;51.032;13.790;2023-04-24T12:45:26;1.95;;;0.57;;
76761;SDS011;65705;51.032;13.790;2023-04-24T12:47:53;0.47;;;0.40;;
76761;SDS011;65705;51.032;13.790;2023-04-24T12:50:19;2.40;;;0.50;;
76761;SDS011;65705;51.032;13.790;2023-04-24T12:52:44;1.48;;;0.52;;
76761;SDS011;65705;51.032;13.790;2023-04-24T12:55:10;2.47;;;1.15;;
76761;SDS011;65705;51.032;13.790;2023-04-24T12:57:38;3.83;;;0.65;;
76761;SDS011;65705;51.032;13.790;2023-04-24T13:00:05;3.33;;;0.50;;
76761;SDS011;65705;51.032;13.790;2023-04-24T13:02:33;3.53;;;1.15;;
76761;SDS011;65705;51.032;13.790;2023-04-24T13:04:59;3.00;;;0.90;;
76761;SDS011;65705;51.032;13.790;2023-04-24T13:07:25;1.58;;;0.70;;
76761;SDS011;65705;51.032;13.790;2023-04-24T13:09:52;0.52;;;0.40;;
76761;SDS011;65705;51.032;13.790;2023-04-24T13:12:18;1.83;;;0.50;;
76761;SDS011;65705;51.032;13.790;2023-04-24T13:14:45;2.05;;;0.55;;
76761;SDS011;65705;51.032;13.790;2023-04-24T13:17:11;1.27;;;0.50;;
76761;SDS011;65705;51.032;13.790;2023-04-24T13:19:38;3.85;;;0.43;;
76761;SDS011;65705;51.032;13.790;2023-04-24T13:22:06;2.25;;;0.60;;
76761;SDS011;65705;51.032;13.790;2023-04-24T13:24:32;3.08;;;0.88;;
76761;SDS011;65705;51.032;13.790;2023-04-24T13:26:58;0.60;;;0.40;;
76761;SDS011;65705;51.032;13.790;2023-04-24T13:29:25;0.98;;;0.50;;
76761;SDS011;65705;51.032;13.790;2023-04-24T13:31:51;1.45;;;0.50;;
76761;SDS011;65705;51.032;13.790;2023-04-24T13:34:19;3.53;;;0.60;;
76761;SDS011;65705;51.032;13.790;2023-04-24T13:36:45;2.97;;;0.52;;
76761;SDS011;65705;51.032;13.790;2023-04-24T13:39:11;3.05;;;0.77;;
76761;SDS011;65705;51.032;13.790;2023-04-24T13:41:36;1.20;;;0.45;;
76761;SDS011;65705;51.032;13.790;2023-04-24T13:44:03;2.45;;;0.90;;
76761;SDS011;65705;51.032;13.790;2023-04-24T13:46:29;2.60;;;0.70;;
76761;SDS011;65705;51.032;13.790;2023-04-24T13:48:56;1.23;;;0.50;;
76761;SDS011;65705;51.032;13.790;2023-04-24T13:51:23;1.48;;;0.35;;
76761;SDS011;65705;51.032;13.790;2023-04-24T13:53:52;0.55;;;0.35;;
76761;SDS011;65705;51.032;13.790;2023-04-24T13:56:18;2.72;;;0.50;;
76761;SDS011;65705;51.032;13.790;2023-04-24T13:58:45;2.97;;;0.90;;
76761;SDS011;65705;51.032;13.790;2023-04-24T14:01:11;2.47;;;0.80;;
76761;SDS011;65705;51.032;13.790;2023-04-24T14:03:37;1.27;;;0.50;;
76761;SDS011;65705;51.032;13.790;2023-04-24T14:06:03;1.33;;;0.50;;
76761;SDS011;65705;51.032;13.790;2023-04-24T14:08:29;3.70;;;1.10;;
76761;SDS011;65705;51.032;13.790;2023-04-24T14:10:55;3.33;;;0.70;;
76761;SDS011;65705;51.032;13.790;2023-04-24T14:13:21;1.17;;;0.55;;
76761;SDS011;65705;51.032;13.790;2023-04-24T14:15:47;1.15;;;0.63;;
76761;SDS011;65705;51.032;13.790;2023-04-24T14:18:12;1.35;;;0.60;;
76761;SDS011;65705;51.032;13.790;2023-04-24T14:20:38;1.35;;;0.60;;
76761;SDS011;65705;51.032;13.790;2023-04-24T14:23:04;1.58;;;0.55;;
76761;SDS011;65705;51.032;13.790;2023-04-24T14:25:30;3.70;;;0.60;;
76761;SDS011;65705;51.032;13.790;2023-04-24T14:27:56;2.20;;;0.65;;
76761;SDS011;65705;51.032;13.790;2023-04-24T14:30:21;2.35;;;0.70;;
76761;SDS011;65705;51.032;13.790;2023-04-24T14:32:48;1.42;;;0.65;;
76761;SDS011;65705;51.032;13.790;2023-04-24T14:35:13;2.95;;;0.55;;
76761;SDS011;65705;51.032;13.790;2023-04-24T14:37:40;6.65;;;0.80;;
76761;SDS011;65705;51.032;13.790;2023-04-24T14:40:06;4.07;;;1.02;;
76761;SDS011;65705;51.032;13.790;2023-04-24T14:42:33;3.20;;;0.85;;
76761;SDS011;65705;51.032;13.790;2023-04-24T14:45:00;2.92;;;1.00;;
76761;SDS011;65705;51.032;13.790;2023-04-24T14:47:26;2.78;;;0.70;;
76761;SDS011;65705;51.032;13.790;2023-04-24T14:49:52;2.33;;;0.65;;
76761;SDS011;65705;51.032;13.790;2023-04-24T14:52:17;1.52;;;0.57;;
76761;SDS011;65705;51.032;13.790;2023-04-24T14:54:43;1.38;;;0.65;;
76761;SDS011;65705;51.032;13.790;2023-04-24T14:57:09;3.28;;;0.60;;